createdAt,value
2023-02-08T00:04:16.186Z,82.0
2023-02-08T00:17:16.217Z,76.0
2023-02-08T00:30:16.184Z,75.0
2023-02-08T00:43:16.231Z,70.0
2023-02-08T00:56:16.206Z,68.0
2023-02-08T01:09:16.198Z,74.0
2023-02-08T01:22:16.176Z,76.0
2023-02-08T01:35:16.211Z,78.0
2023-02-08T01:48:16.223Z,76.0
2023-02-08T02:01:16.237Z,78.0
2023-02-08T02:14:16.208Z,79.0
2023-02-08T02:27:16.175Z,79.0
2023-02-08T02:40:16.210Z,80.0
2023-02-08T02:53:16.228Z,80.0
2023-02-08T03:06:16.191Z,79.0
2023-02-08T03:19:16.355Z,79.0
2023-02-08T03:32:16.205Z,79.0
2023-02-08T03:45:16.237Z,78.0
2023-02-08T03:58:16.215Z,79.0
2023-02-08T04:11:16.187Z,80.0
2023-02-08T04:24:16.208Z,81.0
2023-02-08T04:37:16.219Z,81.0
2023-02-08T04:50:16.237Z,80.0
2023-02-08T05:03:16.226Z,81.0
2023-02-08T05:16:16.257Z,80.0
2023-02-08T05:29:16.237Z,82.0
2023-02-08T05:42:16.230Z,83.0
2023-02-08T05:55:16.244Z,83.0
2023-02-08T06:08:16.259Z,83.0
2023-02-08T06:21:16.270Z,84.0
2023-02-08T06:34:16.303Z,83.0
2023-02-08T06:47:16.302Z,82.0
2023-02-08T07:00:16.376Z,81.0
2023-02-08T07:13:16.341Z,82.0
2023-02-08T07:26:16.318Z,81.0
2023-02-08T07:30:02.915Z,81.0
2023-02-08T07:43:02.981Z,80.0
2023-02-08T07:56:02.870Z,77.0
2023-02-08T08:09:03.319Z,70.0
2023-02-08T08:22:03.640Z,63.0
2023-02-08T08:35:03.709Z,56.0
2023-02-08T08:48:03.958Z,53.0
2023-02-08T09:01:04.381Z,51.0
2023-02-08T09:14:04.829Z,53.0
2023-02-08T09:27:04.724Z,53.0
2023-02-08T09:40:04.543Z,52.0
2023-02-08T09:53:04.805Z,51.0
2023-02-08T10:06:04.582Z,51.0
2023-02-08T10:18:46.156Z,49.0
2023-02-08T10:31:46.164Z,49.0
2023-02-08T10:44:48.310Z,45.0
2023-02-08T10:57:46.153Z,45.0
2023-02-08T11:10:46.149Z,46.0
2023-02-08T11:18:01.357Z,48.0
2023-02-08T11:31:01.428Z,47.0
2023-02-08T11:44:01.679Z,46.0
2023-02-08T11:57:01.514Z,45.0
2023-02-08T12:10:01.571Z,46.0
2023-02-08T12:23:01.646Z,44.0
2023-02-08T12:37:01.774Z,47.0
2023-02-08T12:51:01.638Z,47.0
2023-02-08T13:04:01.656Z,47.0
2023-02-08T13:17:01.741Z,45.0
2023-02-08T13:30:01.755Z,45.0
2023-02-08T13:44:05.751Z,46.0
2023-02-08T13:56:01.734Z,45.0
2023-02-08T14:09:01.734Z,44.0
2023-02-08T14:22:01.829Z,45.0
2023-02-08T14:35:01.877Z,46.0
2023-02-08T14:48:01.793Z,45.0
2023-02-08T15:01:01.790Z,45.0
2023-02-08T15:14:01.760Z,45.0
2023-02-08T15:27:01.827Z,44.0
2023-02-08T15:41:02.202Z,46.0
2023-02-08T15:54:02.170Z,48.0
2023-02-08T16:07:02.238Z,50.0
2023-02-08T16:20:02.206Z,53.0
2023-02-08T16:33:02.227Z,55.0
2023-02-08T16:46:02.309Z,57.0
2023-02-08T16:59:02.235Z,61.0
2023-02-08T17:11:02.284Z,63.0
2023-02-08T17:23:02.320Z,66.0
2023-02-08T17:35:02.506Z,68.0
2023-02-08T17:47:02.872Z,69.0
2023-02-08T17:59:02.724Z,68.0
2023-02-08T18:11:02.628Z,62.0
2023-02-08T18:23:02.633Z,60.0
2023-02-08T18:35:04.178Z,57.0
2023-02-08T18:47:02.646Z,56.0
2023-02-08T18:59:02.632Z,56.0
2023-02-08T19:11:02.658Z,55.0
2023-02-08T19:23:02.648Z,56.0
2023-02-08T19:35:02.644Z,54.0
2023-02-08T19:44:30.910Z,55.0
2023-02-08T19:56:30.625Z,53.0
2023-02-08T20:08:30.629Z,53.0
2023-02-08T20:20:30.648Z,53.0
2023-02-08T20:32:30.716Z,53.0
2023-02-08T20:44:30.693Z,54.0
2023-02-08T20:56:30.710Z,53.0
2023-02-08T21:08:30.696Z,53.0
2023-02-08T21:20:30.704Z,54.0
2023-02-08T21:32:30.765Z,56.0
2023-02-08T21:44:30.724Z,58.0
2023-02-08T21:56:30.708Z,57.0
2023-02-08T22:08:30.776Z,57.0
2023-02-08T22:20:30.736Z,57.0
2023-02-08T22:32:30.707Z,57.0
2023-02-08T22:44:30.756Z,57.0
2023-02-08T22:56:30.732Z,57.0
2023-02-08T23:08:30.738Z,57.0
2023-02-08T23:20:30.754Z,57.0
2023-02-08T23:32:30.769Z,58.0
2023-02-08T23:44:30.754Z,61.0
2023-02-08T23:56:30.790Z,63.0
